createdAt,value
2023-02-27T00:00:28.005Z,100962.00
2023-02-27T00:02:57.780Z,100971.78
2023-02-27T00:05:28.060Z,100977.88
2023-02-27T00:07:57.894Z,100983.72
2023-02-27T00:10:28.122Z,100990.38
2023-02-27T00:12:57.878Z,100996.38
2023-02-27T00:15:28.296Z,101001.09
2023-02-27T00:17:58.119Z,101010.00
2023-02-27T00:20:28.924Z,100993.25
2023-02-27T00:22:58.666Z,101002.50
2023-02-27T00:25:28.831Z,101005.19
2023-02-27T00:27:58.612Z,101010.31
2023-02-27T00:30:28.638Z,100999.53
2023-02-27T00:32:59.575Z,101015.16
2023-02-27T00:35:30.143Z,101024.50
2023-02-27T00:38:00.397Z,101022.69
2023-02-27T00:40:30.205Z,101005.94
2023-02-27T00:43:00.398Z,101007.72
2023-02-27T00:45:31.862Z,100996.31
2023-02-27T00:48:03.257Z,101001.09
2023-02-27T00:50:33.176Z,100998.03
2023-02-27T00:53:03.331Z,101006.63
2023-02-27T00:55:33.880Z,101019.81
2023-02-27T00:58:04.138Z,101013.47
2023-02-27T01:00:34.070Z,101013.56
2023-02-27T01:03:04.972Z,101021.34
2023-02-27T01:05:34.869Z,101028.56
2023-02-27T01:08:05.103Z,101023.50
2023-02-27T01:10:34.849Z,101030.28
2023-02-27T01:13:04.592Z,101045.66
2023-02-27T01:15:36.670Z,101045.22
2023-02-27T01:18:06.855Z,101037.78
2023-02-27T01:20:36.632Z,101029.66
2023-02-27T01:23:06.948Z,101029.09
2023-02-27T01:25:37.167Z,101028.03
2023-02-27T01:28:08.011Z,101027.97
2023-02-27T01:30:39.231Z,101030.63
2023-02-27T01:33:09.987Z,101044.53
2023-02-27T01:35:42.633Z,101042.78
2023-02-27T01:38:12.381Z,101057.25
2023-02-27T01:40:44.388Z,101069.94
2023-02-27T01:43:22.221Z,101078.75
2023-02-27T01:45:55.336Z,101073.63
2023-02-27T01:48:38.666Z,101073.91
2023-02-27T01:51:21.677Z,101070.72
2023-02-27T01:53:54.679Z,101070.19
2023-02-27T01:56:29.665Z,101081.19
2023-02-27T01:59:07.504Z,101082.22
2023-02-27T02:01:37.643Z,101081.19
2023-02-27T02:04:28.346Z,101068.13
2023-02-27T02:07:14.586Z,101065.22
2023-02-27T02:09:51.855Z,101073.50
2023-02-27T02:12:28.201Z,101080.69
2023-02-27T02:14:58.402Z,101087.44
2023-02-27T02:17:45.129Z,101080.88
2023-02-27T02:20:33.879Z,101070.69
2023-02-27T02:23:16.385Z,101067.25
2023-02-27T02:26:24.958Z,101057.53
2023-02-27T02:29:26.820Z,101065.09
2023-02-27T02:32:15.330Z,101065.34
2023-02-27T02:35:10.250Z,101058.66
2023-02-27T02:37:46.249Z,101071.47
2023-02-27T02:40:40.208Z,101070.56
2023-02-27T02:43:22.323Z,101061.94
2023-02-27T02:46:23.896Z,101057.63
2023-02-27T02:49:06.067Z,101050.03
2023-02-27T02:51:49.649Z,101060.28
2023-02-27T02:54:28.437Z,101050.53
2023-02-27T02:57:06.705Z,101050.78
2023-02-27T02:59:59.243Z,101059.06
2023-02-27T03:02:34.457Z,101066.69
2023-02-27T03:05:10.294Z,101064.88
2023-02-27T03:07:53.089Z,101067.16
2023-02-27T03:10:28.827Z,101072.72
2023-02-27T03:13:09.972Z,101078.94
2023-02-27T03:16:25.217Z,101080.06
2023-02-27T03:19:00.678Z,101082.91
2023-02-27T03:21:54.765Z,101089.63
2023-02-27T03:24:55.196Z,101094.47
2023-02-27T03:27:29.539Z,101078.34
2023-02-27T03:29:59.503Z,101083.06
2023-02-27T03:33:01.608Z,101071.78
2023-02-27T03:35:45.818Z,101073.31
2023-02-27T03:38:24.765Z,101079.16
2023-02-27T03:41:17.116Z,101080.06
2023-02-27T03:44:26.071Z,101076.69
2023-02-27T03:46:56.605Z,101075.25
2023-02-27T03:49:26.719Z,101069.41
2023-02-27T03:51:57.127Z,101073.53
2023-02-27T03:54:37.942Z,101070.63
2023-02-27T03:57:10.073Z,101064.09
2023-02-27T03:59:40.800Z,101062.66
2023-02-27T04:02:11.494Z,101057.41
2023-02-27T04:04:41.742Z,101050.97
2023-02-27T04:07:39.548Z,101049.56
2023-02-27T04:10:11.975Z,101043.69
2023-02-27T04:12:57.262Z,101049.34
2023-02-27T04:15:54.357Z,101052.31
2023-02-27T04:18:24.543Z,101049.13
2023-02-27T04:21:07.356Z,101055.06
2023-02-27T04:23:51.964Z,101062.63
2023-02-27T04:26:42.617Z,101059.66
2023-02-27T04:29:43.704Z,101046.13
2023-02-27T04:32:27.592Z,101033.91
2023-02-27T04:35:03.172Z,101029.47
2023-02-27T04:38:20.405Z,101038.78
2023-02-27T04:40:59.512Z,101043.97
2023-02-27T04:43:30.776Z,101047.13
2023-02-27T04:46:03.054Z,101051.88
2023-02-27T04:48:39.995Z,101054.41
2023-02-27T04:51:18.110Z,101054.03
2023-02-27T04:54:07.875Z,101051.16
2023-02-27T04:56:46.064Z,101049.13
2023-02-27T04:59:31.834Z,101054.06
2023-02-27T05:02:09.097Z,101043.72
2023-02-27T05:04:41.377Z,101044.72
2023-02-27T05:07:17.522Z,101042.06
2023-02-27T05:09:56.450Z,101046.16
2023-02-27T05:12:28.342Z,101050.09
2023-02-27T05:15:28.106Z,101042.78
2023-02-27T05:18:05.439Z,101038.69
2023-02-27T05:20:58.762Z,101049.19
2023-02-27T05:24:08.348Z,101046.47
2023-02-27T05:26:56.561Z,101053.03
2023-02-27T05:29:35.559Z,101056.84
2023-02-27T05:32:41.184Z,101058.06
2023-02-27T05:35:17.082Z,101059.63
2023-02-27T05:37:58.515Z,101057.78
2023-02-27T05:40:35.831Z,101058.81
2023-02-27T05:43:21.853Z,101067.03
2023-02-27T05:45:59.573Z,101064.38
2023-02-27T05:48:35.443Z,101063.94
2023-02-27T05:51:09.562Z,101063.09
2023-02-27T05:53:45.119Z,101064.19
2023-02-27T05:56:20.138Z,101070.13
2023-02-27T05:59:01.000Z,101069.66
2023-02-27T06:01:31.300Z,101070.72
2023-02-27T06:04:00.927Z,101078.91
2023-02-27T06:06:32.398Z,101084.50
2023-02-27T06:09:02.558Z,101091.47
2023-02-27T06:11:32.183Z,101093.81
2023-02-27T06:14:01.956Z,101097.59
2023-02-27T06:16:32.208Z,101097.69
2023-02-27T06:19:04.984Z,101096.97
2023-02-27T06:21:35.358Z,101094.63
2023-02-27T06:24:05.027Z,101099.25
2023-02-27T06:26:34.805Z,101096.59
2023-02-27T06:29:04.996Z,101087.75
2023-02-27T06:31:34.823Z,101089.22
2023-02-27T06:34:04.997Z,101084.69
2023-02-27T06:36:35.462Z,101095.06
2023-02-27T06:39:06.067Z,101089.38
2023-02-27T06:41:36.236Z,101097.81
2023-02-27T06:44:06.345Z,101106.44
2023-02-27T06:46:36.571Z,101103.06
2023-02-27T06:49:06.345Z,101104.94
2023-02-27T06:51:36.200Z,101103.94
2023-02-27T06:54:06.506Z,101097.03
2023-02-27T06:56:36.354Z,101105.97
2023-02-27T06:59:06.677Z,101090.34
2023-02-27T07:01:36.707Z,101100.25
2023-02-27T07:04:06.955Z,101105.78
2023-02-27T07:07:32.373Z,101107.19
2023-02-27T07:09:27.922Z,101116.44
2023-02-27T07:11:57.786Z,101120.81
2023-02-27T07:14:28.038Z,101120.28
2023-02-27T07:16:57.897Z,101114.88
2023-02-27T07:19:28.032Z,101122.84
2023-02-27T07:21:57.901Z,101119.88
2023-02-27T07:24:28.105Z,101129.97
2023-02-27T07:26:58.058Z,101123.25
2023-02-27T07:29:28.389Z,101130.06
2023-02-27T07:31:58.367Z,101136.94
2023-02-27T07:34:28.521Z,101146.59
2023-02-27T07:36:58.042Z,101153.22
2023-02-27T07:39:27.798Z,101161.69
2023-02-27T07:41:57.351Z,101157.81
2023-02-27T07:44:27.602Z,101168.19
2023-02-27T07:46:57.212Z,101162.75
2023-02-27T07:49:26.998Z,101161.16
2023-02-27T07:51:57.516Z,101159.81
2023-02-27T07:54:28.771Z,101165.19
2023-02-27T07:56:58.962Z,101165.81
2023-02-27T07:59:28.776Z,101173.25
2023-02-27T08:01:58.402Z,101180.94
2023-02-27T08:04:28.873Z,101174.97
2023-02-27T08:06:59.119Z,101184.59
2023-02-27T08:09:29.318Z,101189.41
2023-02-27T08:11:59.820Z,101194.91
2023-02-27T08:14:30.036Z,101191.75
2023-02-27T08:17:01.345Z,101190.28
2023-02-27T08:19:31.615Z,101204.97
2023-02-27T08:22:01.177Z,101201.78
2023-02-27T08:24:32.206Z,101197.00
2023-02-27T08:27:02.953Z,101198.06
2023-02-27T08:29:34.101Z,101209.38
2023-02-27T08:32:05.672Z,101198.72
2023-02-27T08:34:35.621Z,101218.06
2023-02-27T08:37:05.817Z,101223.38
2023-02-27T08:39:35.381Z,101219.53
2023-02-27T08:42:05.256Z,101217.59
2023-02-27T08:44:35.926Z,101224.88
2023-02-27T08:47:05.754Z,101233.13
2023-02-27T08:49:36.011Z,101225.94
2023-02-27T08:52:06.690Z,101229.34
2023-02-27T08:54:38.246Z,101230.81
2023-02-27T08:57:08.037Z,101231.09
2023-02-27T08:59:38.294Z,101235.91
2023-02-27T09:02:08.310Z,101243.34
2023-02-27T09:04:38.632Z,101250.81
2023-02-27T09:07:08.727Z,101251.03
2023-02-27T09:09:38.969Z,101262.84
2023-02-27T09:12:08.790Z,101269.91
2023-02-27T09:14:39.819Z,101284.84
2023-02-27T09:17:09.646Z,101287.00
2023-02-27T09:19:39.904Z,101286.50
2023-02-27T09:22:09.669Z,101291.94
2023-02-27T09:24:39.890Z,101287.69
2023-02-27T09:27:09.638Z,101300.53
2023-02-27T09:29:39.460Z,101302.47
2023-02-27T09:32:09.968Z,101312.81
2023-02-27T09:34:39.808Z,101319.28
2023-02-27T09:37:10.177Z,101318.59
2023-02-27T09:39:40.023Z,101303.31
2023-02-27T09:42:18.264Z,101291.69
2023-02-27T09:44:49.826Z,101299.84
2023-02-27T09:47:26.070Z,101304.16
2023-02-27T09:50:10.281Z,101306.25
2023-02-27T09:52:41.240Z,101321.56
2023-02-27T09:55:18.985Z,101323.38
2023-02-27T09:58:08.862Z,101331.22
2023-02-27T10:00:46.178Z,101320.41
2023-02-27T10:03:34.289Z,101327.66
2023-02-27T10:06:25.748Z,101326.91
2023-02-27T10:09:08.281Z,101331.28
2023-02-27T10:11:54.033Z,101330.75
2023-02-27T10:14:39.797Z,101339.41
2023-02-27T10:17:22.332Z,101352.75
2023-02-27T10:19:54.382Z,101343.06
2023-02-27T10:22:32.941Z,101346.47
2023-02-27T10:25:28.484Z,101344.34
2023-02-27T10:28:14.059Z,101341.44
2023-02-27T10:30:49.172Z,101346.88
2023-02-27T10:33:41.537Z,101350.59
2023-02-27T10:36:26.868Z,101351.22
2023-02-27T10:39:08.602Z,101353.38
2023-02-27T10:41:40.176Z,101355.19
2023-02-27T10:44:12.109Z,101353.81
2023-02-27T10:46:43.234Z,101361.78
2023-02-27T10:49:21.797Z,101364.09
2023-02-27T10:52:13.779Z,101368.41
2023-02-27T10:54:44.793Z,101371.88
2023-02-27T10:57:43.515Z,101373.94
2023-02-27T11:00:40.415Z,101381.59
2023-02-27T11:03:25.447Z,101381.03
2023-02-27T11:06:07.116Z,101381.41
2023-02-27T11:08:37.824Z,101366.38
2023-02-27T11:11:10.950Z,101371.03
2023-02-27T11:13:46.297Z,101382.72
2023-02-27T11:16:23.112Z,101377.97
2023-02-27T11:18:55.565Z,101375.66
2023-02-27T11:21:32.105Z,101377.28
2023-02-27T11:24:21.189Z,101380.81
2023-02-27T11:27:07.568Z,101397.06
2023-02-27T11:29:38.517Z,101404.25
2023-02-27T11:32:16.269Z,101413.63
2023-02-27T11:34:52.184Z,101407.31
2023-02-27T11:37:34.083Z,101412.94
2023-02-27T11:40:16.214Z,101407.75
2023-02-27T11:42:51.702Z,101414.94
2023-02-27T11:46:04.586Z,101421.88
2023-02-27T11:48:41.025Z,101423.16
2023-02-27T11:51:26.510Z,101419.59
2023-02-27T11:53:59.562Z,101420.22
2023-02-27T11:56:36.020Z,101418.34
2023-02-27T11:59:16.537Z,101421.03
2023-02-27T12:02:08.516Z,101425.56
2023-02-27T12:04:47.744Z,101420.03
2023-02-27T12:07:40.193Z,101418.16
2023-02-27T12:10:18.090Z,101415.78
2023-02-27T12:13:22.012Z,101419.38
2023-02-27T12:16:26.373Z,101420.59
2023-02-27T12:19:07.441Z,101420.88
2023-02-27T12:21:44.322Z,101418.28
2023-02-27T12:24:32.162Z,101411.28
2023-02-27T12:27:16.407Z,101412.94
2023-02-27T12:30:02.989Z,101419.44
2023-02-27T12:33:11.046Z,101399.97
2023-02-27T12:35:44.226Z,101409.97
2023-02-27T12:38:16.770Z,101410.50
2023-02-27T12:41:03.585Z,101417.59
2023-02-27T12:43:58.504Z,101415.88
2023-02-27T12:46:43.662Z,101402.25
2023-02-27T12:49:23.999Z,101416.22
2023-02-27T12:52:07.278Z,101418.34
2023-02-27T12:54:59.146Z,101425.72
2023-02-27T12:57:38.443Z,101423.00
2023-02-27T13:00:23.470Z,101412.97
2023-02-27T13:02:59.984Z,101409.44
2023-02-27T13:05:36.528Z,101404.41
2023-02-27T13:08:19.649Z,101417.59
2023-02-27T13:10:58.666Z,101412.44
2023-02-27T13:14:07.802Z,101418.72
2023-02-27T13:16:56.980Z,101421.31
2023-02-27T13:19:35.512Z,101429.63
2023-02-27T13:22:11.703Z,101426.34
2023-02-27T13:24:48.742Z,101429.34
2023-02-27T13:27:22.045Z,101422.47
2023-02-27T13:30:16.783Z,101418.88
2023-02-27T13:33:30.840Z,101423.47
2023-02-27T13:36:16.874Z,101424.19
2023-02-27T13:38:51.179Z,101417.63
2023-02-27T13:41:30.024Z,101419.41
2023-02-27T13:44:02.589Z,101417.16
2023-02-27T13:46:34.656Z,101420.22
2023-02-27T13:49:12.591Z,101422.72
2023-02-27T13:51:54.729Z,101408.94
2023-02-27T13:54:32.677Z,101419.00
2023-02-27T13:57:05.443Z,101411.91
2023-02-27T13:59:40.752Z,101417.84
2023-02-27T14:02:13.377Z,101405.97
2023-02-27T14:04:56.540Z,101403.09
2023-02-27T14:07:30.752Z,101397.78
2023-02-27T14:10:21.098Z,101393.09
2023-02-27T14:12:51.182Z,101386.31
2023-02-27T14:15:25.007Z,101383.97
2023-02-27T14:18:12.411Z,101387.78
2023-02-27T14:20:44.393Z,101377.53
2023-02-27T14:23:17.360Z,101364.94
2023-02-27T14:26:01.356Z,101372.34
2023-02-27T14:28:47.243Z,101363.25
2023-02-27T14:31:36.143Z,101359.66
2023-02-27T14:34:07.458Z,101359.53
2023-02-27T14:36:41.833Z,101353.56
2023-02-27T14:39:24.603Z,101339.53
2023-02-27T14:41:57.991Z,101334.50
2023-02-27T14:44:30.213Z,101335.88
2023-02-27T14:47:04.290Z,101333.56
2023-02-27T14:49:36.233Z,101334.88
2023-02-27T14:52:15.639Z,101338.91
2023-02-27T14:54:45.462Z,101330.19
2023-02-27T14:57:26.746Z,101338.25
2023-02-27T14:59:57.072Z,101334.81
2023-02-27T15:02:29.773Z,101325.94
2023-02-27T15:05:02.920Z,101326.63
2023-02-27T15:07:35.611Z,101330.84
2023-02-27T15:10:09.318Z,101328.78
2023-02-27T15:12:40.558Z,101334.09
2023-02-27T15:15:12.016Z,101323.94
2023-02-27T15:17:45.393Z,101328.81
2023-02-27T15:20:36.817Z,101318.41
2023-02-27T15:23:43.001Z,101318.13
2023-02-27T15:26:15.558Z,101325.34
2023-02-27T15:28:45.551Z,101315.16
2023-02-27T15:31:23.136Z,101313.19
2023-02-27T15:33:53.714Z,101311.47
2023-02-27T15:36:27.778Z,101304.03
2023-02-27T15:39:18.536Z,101302.88
2023-02-27T15:41:54.449Z,101301.00
2023-02-27T15:44:35.074Z,101300.34
2023-02-27T15:47:05.473Z,101301.22
2023-02-27T15:49:36.025Z,101305.06
2023-02-27T15:52:18.577Z,101302.75
2023-02-27T15:54:55.343Z,101306.94
2023-02-27T15:57:25.492Z,101306.72
2023-02-27T15:59:57.620Z,101293.78
2023-02-27T16:02:40.443Z,101293.03
2023-02-27T16:05:21.420Z,101294.09
2023-02-27T16:07:52.214Z,101281.84
2023-02-27T16:10:26.498Z,101275.81
2023-02-27T16:12:57.049Z,101287.38
2023-02-27T16:15:40.062Z,101278.84
2023-02-27T16:18:09.852Z,101290.13
2023-02-27T16:20:47.943Z,101290.53
2023-02-27T16:23:21.646Z,101294.13
2023-02-27T16:26:10.454Z,101297.44
2023-02-27T16:28:47.399Z,101297.88
2023-02-27T16:31:24.408Z,101293.31
2023-02-27T16:33:55.995Z,101296.22
2023-02-27T16:36:28.600Z,101283.91
2023-02-27T16:38:58.718Z,101286.97
2023-02-27T16:41:29.231Z,101286.97
2023-02-27T16:43:59.182Z,101286.03
2023-02-27T16:46:28.998Z,101287.00
2023-02-27T16:49:19.260Z,101284.69
2023-02-27T16:51:49.813Z,101280.09
2023-02-27T16:54:21.122Z,101269.94
2023-02-27T16:56:52.203Z,101267.81
2023-02-27T16:59:30.241Z,101260.50
2023-02-27T17:02:01.395Z,101265.69
2023-02-27T17:04:32.075Z,101250.88
2023-02-27T17:07:06.284Z,101250.75
2023-02-27T17:09:36.789Z,101268.28
2023-02-27T17:12:06.682Z,101265.56
2023-02-27T17:14:40.085Z,101265.97
2023-02-27T17:17:12.114Z,101262.28
2023-02-27T17:19:42.438Z,101257.56
2023-02-27T17:22:12.221Z,101252.50
2023-02-27T17:24:42.593Z,101249.38
2023-02-27T17:27:21.593Z,101244.75
2023-02-27T17:29:51.847Z,101237.16
2023-02-27T17:32:22.522Z,101229.47
2023-02-27T17:34:57.726Z,101235.50
2023-02-27T17:37:28.419Z,101226.38
2023-02-27T17:39:58.765Z,101226.88
2023-02-27T17:42:28.932Z,101223.31
2023-02-27T17:44:59.223Z,101234.09
2023-02-27T17:47:29.265Z,101234.78
2023-02-27T17:49:59.739Z,101223.94
2023-02-27T17:52:29.711Z,101230.19
2023-02-27T17:55:00.090Z,101219.78
2023-02-27T17:57:29.972Z,101226.72
2023-02-27T18:00:00.278Z,101221.38
2023-02-27T18:02:30.127Z,101228.50
2023-02-27T18:05:00.418Z,101237.91
2023-02-27T18:07:30.020Z,101231.88
2023-02-27T18:09:59.900Z,101234.50
2023-02-27T18:12:30.289Z,101227.31
2023-02-27T18:15:00.164Z,101225.22
2023-02-27T18:17:30.485Z,101228.22
2023-02-27T18:20:00.112Z,101225.94
2023-02-27T18:22:31.083Z,101236.53
2023-02-27T18:25:02.135Z,101240.13
2023-02-27T18:27:32.167Z,101222.56
2023-02-27T18:30:03.874Z,101221.69
2023-02-27T18:32:33.665Z,101230.59
2023-02-27T18:35:03.245Z,101218.91
2023-02-27T18:37:34.164Z,101214.09
2023-02-27T18:40:07.031Z,101218.69
2023-02-27T18:42:37.414Z,101209.53
2023-02-27T18:45:07.784Z,101207.59
2023-02-27T18:47:38.020Z,101200.28
2023-02-27T18:50:08.179Z,101197.53
2023-02-27T18:52:38.444Z,101201.09
2023-02-27T18:55:11.951Z,101199.00
2023-02-27T18:57:42.582Z,101199.84
2023-02-27T19:00:14.778Z,101190.00
2023-02-27T19:02:47.258Z,101201.88
2023-02-27T19:05:17.050Z,101203.41
2023-02-27T19:07:47.841Z,101200.63
2023-02-27T19:10:17.798Z,101187.25
2023-02-27T19:12:50.784Z,101191.91
2023-02-27T19:15:21.002Z,101187.69
2023-02-27T19:17:50.848Z,101191.38
2023-02-27T19:20:20.448Z,101180.22
2023-02-27T19:22:50.902Z,101174.84
2023-02-27T19:25:23.757Z,101183.34
2023-02-27T19:27:58.719Z,101187.84
2023-02-27T19:30:28.530Z,101184.66
2023-02-27T19:32:58.746Z,101168.66
2023-02-27T19:35:28.344Z,101168.16
2023-02-27T19:37:59.346Z,101158.56
2023-02-27T19:40:29.722Z,101154.03
2023-02-27T19:42:59.863Z,101160.06
2023-02-27T19:45:30.318Z,101159.69
2023-02-27T19:48:00.661Z,101155.13
2023-02-27T19:50:31.466Z,101147.31
2023-02-27T19:53:01.299Z,101150.13
2023-02-27T19:55:31.520Z,101154.03
2023-02-27T19:58:01.298Z,101150.72
2023-02-27T20:00:32.426Z,101154.84
2023-02-27T20:03:02.231Z,101154.38
2023-02-27T20:05:32.472Z,101162.41
2023-02-27T20:08:02.327Z,101163.97
2023-02-27T20:10:32.536Z,101171.69
2023-02-27T20:13:02.347Z,101175.38
2023-02-27T20:15:32.584Z,101172.19
2023-02-27T20:18:02.339Z,101174.53
2023-02-27T20:20:32.189Z,101181.34
2023-02-27T20:23:02.385Z,101180.38
2023-02-27T20:25:32.176Z,101172.00
2023-02-27T20:28:02.009Z,101181.16
2023-02-27T20:30:32.172Z,101174.56
2023-02-27T20:33:02.706Z,101174.06
2023-02-27T20:35:33.766Z,101187.66
2023-02-27T20:38:03.668Z,101194.34
2023-02-27T20:40:35.299Z,101186.78
2023-02-27T20:43:05.282Z,101192.28
2023-02-27T20:45:40.169Z,101196.78
2023-02-27T20:48:10.010Z,101193.44
2023-02-27T20:50:39.590Z,101197.91
2023-02-27T20:53:09.817Z,101196.69
2023-02-27T20:55:39.487Z,101206.97
2023-02-27T20:58:09.230Z,101215.53
2023-02-27T21:00:39.434Z,101221.91
2023-02-27T21:03:09.215Z,101226.81
2023-02-27T21:05:38.973Z,101235.63
2023-02-27T21:08:08.586Z,101245.06
2023-02-27T21:10:40.294Z,101245.81
2023-02-27T21:13:10.340Z,101246.09
2023-02-27T21:15:40.950Z,101241.84
2023-02-27T21:18:10.955Z,101237.16
2023-02-27T21:20:45.314Z,101248.28
2023-02-27T21:23:15.040Z,101248.25
2023-02-27T21:25:45.491Z,101253.78
2023-02-27T21:28:15.816Z,101236.72
2023-02-27T21:30:45.598Z,101228.94
2023-02-27T21:33:15.854Z,101219.53
2023-02-27T21:35:48.762Z,101233.44
2023-02-27T21:38:19.868Z,101234.13
2023-02-27T21:40:50.216Z,101247.91
2023-02-27T21:43:19.950Z,101250.19
2023-02-27T21:45:52.775Z,101249.00
2023-02-27T21:48:22.549Z,101251.81
2023-02-27T21:50:52.784Z,101256.03
2023-02-27T21:53:22.551Z,101250.06
2023-02-27T21:55:55.582Z,101252.00
2023-02-27T21:58:25.675Z,101263.09
2023-02-27T22:00:55.904Z,101262.13
2023-02-27T22:03:25.696Z,101264.13
2023-02-27T22:05:55.956Z,101263.72
2023-02-27T22:08:25.743Z,101261.31
2023-02-27T22:11:00.173Z,101272.47
2023-02-27T22:13:30.523Z,101275.66
2023-02-27T22:16:06.596Z,101278.81
2023-02-27T22:18:37.320Z,101286.97
2023-02-27T22:21:13.817Z,101285.47
2023-02-27T22:23:43.641Z,101272.47
2023-02-27T22:26:16.884Z,101277.47
2023-02-27T22:28:46.670Z,101284.53
2023-02-27T22:31:25.171Z,101297.38
2023-02-27T22:33:56.723Z,101299.00
2023-02-27T22:36:28.945Z,101307.81
2023-02-27T22:38:58.751Z,101313.91
2023-02-27T22:41:31.661Z,101312.34
2023-02-27T22:44:02.694Z,101315.03
2023-02-27T22:46:38.510Z,101312.69
2023-02-27T22:49:24.808Z,101317.56
2023-02-27T22:51:55.084Z,101329.28
2023-02-27T22:54:24.830Z,101329.25
2023-02-27T22:56:57.822Z,101341.16
2023-02-27T22:59:27.699Z,101338.69
2023-02-27T23:01:57.679Z,101348.75
2023-02-27T23:04:27.201Z,101357.94
2023-02-27T23:06:57.417Z,101358.47
2023-02-27T23:09:28.428Z,101374.56
2023-02-27T23:11:58.114Z,101363.47
2023-02-27T23:14:27.481Z,101362.34
2023-02-27T23:16:57.408Z,101367.19
2023-02-27T23:19:26.702Z,101374.34
2023-02-27T23:21:56.190Z,101377.91
2023-02-27T23:24:25.590Z,101383.84
2023-02-27T23:26:55.439Z,101377.06
2023-02-27T23:29:24.958Z,101385.31
2023-02-27T23:31:54.943Z,101384.78
2023-02-27T23:34:25.827Z,101384.97
2023-02-27T23:36:56.407Z,101391.78
2023-02-27T23:39:26.330Z,101406.13
2023-02-27T23:41:55.729Z,101407.34
2023-02-27T23:44:25.286Z,101402.19
2023-02-27T23:46:55.200Z,101400.38
2023-02-27T23:49:24.660Z,101409.81
2023-02-27T23:51:54.126Z,101410.16
2023-02-27T23:54:24.009Z,101419.06
2023-02-27T23:56:53.317Z,101413.88
2023-02-27T23:59:22.843Z,101424.53
